createdAt,value
2018-06-14T00:03:14.231Z,11.10
2018-06-14T00:05:41.812Z,11.10
2018-06-14T00:08:09.390Z,11.00
2018-06-14T00:10:36.947Z,11.00
2018-06-14T00:13:04.646Z,11.10
2018-06-14T00:17:59.627Z,11.00
2018-06-14T00:20:27.216Z,11.00
2018-06-14T00:22:54.755Z,11.00
2018-06-14T00:25:22.395Z,11.00
2018-06-14T00:27:50.038Z,11.00
2018-06-14T00:32:45.151Z,11.10
2018-06-14T00:35:12.768Z,11.10
2018-06-14T00:37:40.353Z,11.10
2018-06-14T00:47:30.602Z,10.90
2018-06-14T00:49:58.212Z,11.00
2018-06-14T00:52:25.862Z,11.10
2018-06-14T00:54:53.456Z,11.10
2018-06-14T00:59:50.621Z,11.10
2018-06-14T01:02:18.222Z,11.10
2018-06-14T01:04:45.961Z,11.00
2018-06-14T01:07:13.607Z,11.00
2018-06-14T01:09:41.335Z,11.00
2018-06-14T01:12:08.998Z,11.00
2018-06-14T01:14:36.618Z,10.90
2018-06-14T01:17:04.471Z,10.90
2018-06-14T01:19:32.126Z,10.90
2018-06-14T01:21:59.791Z,10.90
2018-06-14T01:24:27.414Z,10.90
2018-06-14T01:29:23.456Z,10.90
2018-06-14T01:31:51.026Z,10.90
2018-06-14T01:34:18.742Z,10.90
2018-06-14T01:36:46.424Z,10.90
2018-06-14T01:39:14.022Z,10.80
2018-06-14T01:44:09.237Z,10.90
2018-06-14T01:46:36.857Z,10.90
2018-06-14T01:49:04.517Z,10.90
2018-06-14T01:51:32.138Z,10.90
2018-06-14T01:53:59.778Z,10.90
2018-06-14T01:56:27.478Z,11.00
2018-06-14T02:01:22.563Z,11.00
2018-06-14T02:03:50.392Z,11.00
2018-06-14T02:08:45.514Z,11.00
2018-06-14T02:11:13.144Z,11.00
2018-06-14T02:13:40.823Z,11.00
2018-06-14T02:18:38.677Z,10.90
2018-06-14T02:23:34.212Z,10.90
2018-06-14T02:26:01.882Z,10.90
2018-06-14T02:28:29.458Z,11.00
2018-06-14T02:30:57.107Z,11.00
2018-06-14T02:33:24.754Z,11.00
2018-06-14T02:35:52.897Z,11.00
2018-06-14T02:38:22.325Z,11.00
2018-06-14T02:40:50.464Z,11.00
2018-06-14T02:43:18.272Z,10.90
2018-06-14T02:45:45.932Z,11.00
2018-06-14T02:50:41.112Z,10.80
2018-06-14T02:53:08.758Z,10.80
2018-06-14T02:55:36.419Z,10.80
2018-06-14T02:58:04.113Z,10.70
2018-06-14T03:00:31.678Z,10.80
2018-06-14T03:02:59.519Z,10.80
2018-06-14T03:05:27.207Z,10.80
2018-06-14T03:15:17.398Z,10.90
2018-06-14T03:17:45.054Z,10.90
2018-06-14T03:20:12.691Z,10.90
2018-06-14T03:22:40.362Z,10.80
2018-06-14T03:25:08.016Z,10.80
2018-06-14T03:27:35.573Z,10.80
2018-06-14T03:30:03.430Z,10.80
2018-06-14T03:32:31.034Z,10.80
2018-06-14T03:34:58.678Z,10.80
2018-06-14T03:37:26.278Z,10.90
2018-06-14T03:39:53.907Z,10.90
2018-06-14T03:42:21.514Z,10.90
2018-06-14T03:44:49.217Z,10.90
2018-06-14T03:47:16.792Z,10.90
2018-06-14T03:52:12.623Z,10.90
2018-06-14T03:54:40.247Z,11.00
2018-06-14T03:57:08.068Z,11.00
2018-06-14T03:59:35.854Z,11.10
2018-06-14T04:02:03.872Z,11.10
2018-06-14T04:04:31.490Z,11.20
2018-06-14T04:06:59.115Z,11.20
2018-06-14T04:09:26.748Z,11.30
2018-06-14T04:11:54.368Z,11.40
2018-06-14T04:14:21.953Z,12.20
2018-06-14T04:16:49.555Z,11.30
2018-06-14T04:21:44.648Z,11.40
2018-06-14T04:24:12.253Z,11.50
2018-06-14T04:26:39.842Z,11.40
2018-06-14T04:29:07.488Z,11.40
2018-06-14T04:31:35.088Z,11.40
2018-06-14T04:34:02.712Z,11.40
2018-06-14T04:36:30.320Z,11.40
2018-06-14T04:38:57.942Z,11.40
2018-06-14T04:41:25.558Z,11.30
2018-06-14T04:43:53.178Z,11.40
2018-06-14T04:46:20.789Z,11.40
2018-06-14T04:48:48.380Z,11.40
2018-06-14T04:51:15.983Z,11.50
2018-06-14T04:53:43.577Z,11.50
2018-06-14T04:56:12.514Z,11.50
2018-06-14T04:58:40.118Z,11.50
2018-06-14T05:19:03.363Z,11.60
2018-06-14T05:23:58.439Z,11.90
2018-06-14T05:26:26.116Z,11.90
2018-06-14T05:28:53.814Z,11.90
2018-06-14T05:31:21.479Z,12.00
2018-06-14T05:33:49.069Z,12.10
2018-06-14T05:38:44.441Z,12.30
2018-06-14T05:41:12.087Z,12.30
2018-06-14T05:43:39.690Z,12.30
2018-06-14T05:46:07.374Z,12.40
2018-06-14T05:48:34.981Z,12.40
2018-06-14T05:51:02.619Z,12.40
2018-06-14T05:53:30.221Z,12.40
2018-06-14T05:55:57.814Z,12.30
2018-06-14T05:58:25.489Z,12.40
2018-06-14T06:00:53.090Z,12.40
2018-06-14T06:03:20.750Z,12.50
2018-06-14T06:05:48.381Z,12.40
2018-06-14T06:08:16.094Z,12.40
2018-06-14T06:10:43.685Z,12.50
2018-06-14T06:13:11.329Z,12.60
2018-06-14T06:20:34.059Z,12.60
2018-06-14T06:23:01.716Z,12.60
2018-06-14T06:27:57.300Z,12.60
2018-06-14T06:30:25.112Z,12.70
2018-06-14T06:32:52.733Z,12.90
2018-06-14T06:35:20.320Z,13.00
2018-06-14T06:37:47.961Z,13.10
2018-06-14T06:40:15.569Z,13.10
2018-06-14T06:45:10.692Z,13.20
2018-06-14T06:50:05.862Z,13.40
2018-06-14T06:52:33.572Z,13.30
2018-06-14T06:55:01.174Z,13.40
2018-06-14T06:57:29.544Z,13.40
2018-06-14T07:02:24.666Z,13.50
2018-06-14T07:04:52.266Z,13.50
2018-06-14T07:07:19.870Z,13.60
2018-06-14T07:09:47.510Z,13.70
2018-06-14T07:12:15.131Z,13.70
2018-06-14T07:14:42.801Z,13.80
2018-06-14T07:17:10.431Z,13.70
2018-06-14T07:19:38.117Z,13.80
2018-06-14T07:22:05.764Z,13.90
2018-06-14T07:24:33.400Z,13.80
2018-06-14T07:29:28.529Z,14.00
2018-06-14T07:34:23.712Z,14.10
2018-06-14T07:36:51.339Z,14.20
2018-06-14T07:39:18.959Z,14.40
2018-06-14T07:41:46.534Z,14.60
2018-06-14T07:44:14.120Z,14.40
2018-06-14T07:49:09.198Z,14.40
2018-06-14T07:51:36.841Z,14.60
2018-06-14T07:54:04.490Z,15.00
2018-06-14T07:56:32.140Z,15.20
2018-06-14T07:58:59.720Z,15.20
2018-06-14T08:01:28.307Z,15.20
2018-06-14T08:03:55.852Z,15.20
2018-06-14T08:06:23.525Z,15.20
2018-06-14T08:11:18.550Z,14.80
2018-06-14T08:13:46.186Z,14.60
2018-06-14T08:16:13.827Z,14.50
2018-06-14T08:21:08.894Z,14.30
2018-06-14T08:23:36.524Z,14.20
2018-06-14T08:28:31.645Z,14.10
2018-06-14T08:30:59.227Z,14.00
2018-06-14T08:33:26.826Z,14.00
2018-06-14T08:35:54.396Z,13.90
2018-06-14T08:38:22.010Z,14.00
2018-06-14T08:45:44.626Z,14.00
2018-06-14T08:48:12.315Z,13.90
2018-06-14T08:50:39.957Z,13.90
2018-06-14T08:53:07.570Z,13.90
2018-06-14T08:55:35.185Z,13.80
2018-06-14T08:58:02.751Z,13.80
2018-06-14T09:02:57.870Z,13.90
2018-06-14T09:07:53.821Z,13.90
2018-06-14T09:12:49.039Z,14.00
2018-06-14T09:15:22.037Z,14.10
2018-06-14T09:17:49.679Z,14.10
2018-06-14T09:22:45.456Z,14.10
2018-06-14T09:25:16.176Z,14.10
2018-06-14T09:27:45.220Z,14.10
2018-06-14T09:30:13.517Z,14.30
2018-06-14T09:35:11.906Z,14.30
2018-06-14T09:37:40.240Z,14.40
2018-06-14T09:40:08.524Z,14.40
2018-06-14T09:42:36.430Z,14.50
2018-06-14T09:45:05.011Z,14.50
2018-06-14T09:47:33.360Z,14.60
2018-06-14T09:52:29.300Z,14.50
2018-06-14T09:54:58.380Z,14.50
2018-06-14T09:59:52.256Z,14.60
2018-06-14T10:02:20.511Z,14.60
2018-06-14T10:04:48.123Z,14.90
2018-06-14T10:07:15.942Z,15.50
2018-06-14T10:09:43.544Z,16.00
2018-06-14T10:12:11.120Z,16.30
2018-06-14T10:14:38.752Z,16.50
2018-06-14T10:17:06.363Z,16.90
2018-06-14T10:19:34.098Z,17.10
2018-06-14T10:24:29.300Z,17.70
2018-06-14T10:26:56.946Z,18.00
2018-06-14T10:29:24.597Z,18.00
2018-06-14T10:31:52.230Z,18.00
2018-06-14T10:34:19.911Z,17.90
2018-06-14T10:36:47.512Z,17.70
2018-06-14T10:39:15.138Z,17.30
2018-06-14T10:44:10.423Z,17.40
2018-06-14T10:46:38.021Z,17.70
2018-06-14T10:49:05.708Z,17.90
2018-06-14T10:51:34.226Z,18.20
2018-06-14T10:54:01.928Z,18.70
2018-06-14T10:56:29.505Z,19.10
2018-06-14T10:58:57.103Z,19.40
2018-06-14T11:03:52.296Z,19.30
2018-06-14T11:08:47.482Z,19.40
2018-06-14T11:11:15.175Z,19.10
2018-06-14T11:13:42.871Z,18.70
2018-06-14T11:16:10.503Z,18.70
2018-06-14T11:18:38.156Z,18.70
2018-06-14T11:21:05.823Z,18.40
2018-06-14T11:23:33.442Z,18.40
2018-06-14T11:26:01.127Z,18.60
2018-06-14T11:28:28.791Z,18.70
2018-06-14T11:30:56.423Z,19.10
2018-06-14T11:35:51.666Z,19.20
2018-06-14T11:38:19.303Z,19.20
2018-06-14T11:40:46.996Z,19.30
2018-06-14T11:43:14.663Z,19.40
2018-06-14T11:45:42.301Z,19.60
2018-06-14T11:48:09.957Z,19.50
2018-06-14T11:53:05.138Z,19.40
2018-06-14T11:55:32.789Z,19.40
2018-06-14T11:58:00.450Z,19.20
2018-06-14T12:00:28.094Z,19.20
2018-06-14T12:02:55.772Z,19.20
2018-06-14T12:05:23.427Z,19.00
2018-06-14T12:07:51.099Z,18.90
2018-06-14T12:10:18.712Z,18.90
2018-06-14T12:12:46.470Z,18.80
2018-06-14T12:15:14.166Z,18.90
2018-06-14T12:17:42.699Z,19.10
2018-06-14T12:20:10.283Z,19.30
2018-06-14T12:22:37.949Z,19.60
2018-06-14T12:25:05.619Z,19.90
2018-06-14T12:27:33.261Z,19.80
2018-06-14T12:30:00.881Z,19.80
2018-06-14T12:34:56.048Z,20.20
2018-06-14T12:37:23.672Z,20.50
2018-06-14T12:39:51.295Z,20.40
2018-06-14T12:42:18.864Z,20.40
2018-06-14T12:47:14.034Z,20.50
2018-06-14T12:49:41.714Z,20.50
2018-06-14T12:52:09.308Z,20.50
2018-06-14T12:54:36.932Z,20.30
2018-06-14T12:57:04.823Z,19.90
2018-06-14T12:59:32.454Z,19.50
2018-06-14T13:02:00.069Z,19.00
2018-06-14T13:06:55.253Z,18.50
2018-06-14T13:11:50.450Z,18.40
2018-06-14T13:16:45.626Z,18.10
2018-06-14T13:19:13.293Z,18.20
2018-06-14T13:21:40.956Z,18.40
2018-06-14T13:24:08.608Z,18.30
2018-06-14T13:26:36.305Z,18.10
2018-06-14T13:29:03.897Z,18.00
2018-06-14T13:31:31.592Z,17.90
2018-06-14T13:36:26.860Z,17.90
2018-06-14T13:38:54.523Z,17.90
2018-06-14T13:41:22.158Z,17.90
2018-06-14T13:46:17.352Z,17.80
2018-06-14T13:48:44.986Z,17.80
2018-06-14T13:51:12.613Z,17.80
2018-06-14T13:53:40.393Z,18.00
2018-06-14T14:01:03.164Z,18.00
2018-06-14T14:03:30.824Z,17.90
2018-06-14T14:05:58.529Z,18.10
2018-06-14T14:10:53.883Z,18.50
2018-06-14T14:13:21.591Z,18.50
2018-06-14T14:15:49.224Z,18.30
2018-06-14T14:20:44.578Z,18.40
2018-06-14T14:23:12.295Z,18.70
2018-06-14T14:25:40.023Z,19.30
2018-06-14T14:28:07.774Z,20.20
2018-06-14T14:30:35.492Z,20.30
2018-06-14T14:33:03.109Z,20.20
2018-06-14T14:37:58.384Z,19.70
2018-06-14T14:40:26.243Z,19.40
2018-06-14T14:50:17.179Z,19.60
2018-06-14T14:52:45.084Z,20.40
2018-06-14T14:55:12.881Z,20.80
2018-06-14T14:57:40.673Z,21.10
2018-06-14T15:02:36.192Z,21.30
2018-06-14T15:05:04.151Z,21.50
2018-06-14T15:07:32.008Z,21.70
2018-06-14T15:09:59.736Z,22.00
2018-06-14T15:14:55.036Z,22.60
2018-06-14T15:19:50.436Z,21.90
2018-06-14T15:22:18.189Z,21.50
2018-06-14T15:27:13.369Z,21.30
2018-06-14T15:29:41.173Z,21.30
2018-06-14T15:37:04.075Z,21.80
2018-06-14T15:39:31.829Z,21.30
2018-06-14T15:41:59.539Z,20.70
2018-06-14T15:44:27.187Z,20.50
2018-06-14T15:46:54.877Z,20.20
2018-06-14T15:49:22.692Z,19.90
2018-06-14T15:51:50.323Z,19.50
2018-06-14T15:54:18.173Z,19.30
2018-06-14T15:56:45.782Z,19.10
2018-06-14T16:06:37.659Z,19.40
2018-06-14T16:11:35.549Z,19.60
2018-06-14T16:16:30.825Z,19.60
2018-06-14T16:18:58.429Z,19.80
2018-06-14T16:21:26.079Z,19.90
2018-06-14T16:23:53.742Z,20.00
2018-06-14T16:26:21.410Z,20.10
2018-06-14T16:28:49.075Z,20.10
2018-06-14T16:31:16.741Z,20.10
2018-06-14T16:33:44.419Z,20.00
2018-06-14T16:36:12.136Z,20.00
2018-06-14T16:41:07.488Z,20.10
2018-06-14T16:43:35.409Z,20.00
2018-06-14T16:50:58.489Z,19.70
2018-06-14T17:03:16.668Z,19.60
2018-06-14T17:08:12.036Z,19.50
2018-06-14T17:10:39.718Z,19.40
2018-06-14T17:13:07.369Z,19.40
2018-06-14T17:15:35.052Z,19.30
2018-06-14T17:18:02.802Z,19.30
2018-06-14T17:20:30.464Z,19.20
2018-06-14T17:22:58.205Z,19.40
2018-06-14T17:25:25.840Z,19.40
2018-06-14T17:30:21.203Z,19.30
2018-06-14T17:32:48.842Z,19.10
2018-06-14T17:37:44.256Z,18.70
2018-06-14T17:40:11.982Z,18.40
2018-06-14T17:42:39.745Z,18.20
2018-06-14T17:45:07.450Z,17.90
2018-06-14T17:47:35.093Z,17.60
2018-06-14T17:50:02.864Z,17.40
2018-06-14T17:52:30.518Z,17.30
2018-06-14T17:54:58.198Z,17.20
2018-06-14T17:57:25.983Z,17.00
2018-06-14T17:59:53.769Z,17.00
2018-06-14T18:02:21.485Z,16.90
2018-06-14T18:07:16.891Z,16.60
2018-06-14T18:09:44.685Z,16.60
2018-06-14T18:12:12.405Z,16.50
2018-06-14T18:14:40.167Z,16.40
2018-06-14T18:24:30.614Z,16.10
2018-06-14T18:26:58.289Z,16.00
2018-06-14T18:29:25.973Z,16.00
2018-06-14T18:34:21.394Z,15.80
2018-06-14T18:36:49.050Z,15.70
2018-06-14T18:39:16.759Z,15.60
2018-06-14T18:41:44.521Z,15.60
2018-06-14T18:49:07.352Z,15.30
2018-06-14T18:51:35.296Z,15.30
2018-06-14T18:56:30.685Z,15.10
2018-06-14T18:58:58.425Z,15.00
2018-06-14T19:01:26.136Z,14.90
2018-06-14T19:06:22.349Z,14.70
2018-06-14T19:08:50.112Z,14.50
2018-06-14T19:11:17.849Z,14.40
2018-06-14T19:13:45.524Z,14.40
2018-06-14T19:18:50.205Z,14.20
2018-06-14T19:21:18.116Z,14.20
2018-06-14T19:23:45.786Z,14.00
2018-06-14T19:26:13.608Z,13.90
2018-06-14T19:28:41.385Z,13.80
2018-06-14T19:31:09.095Z,13.60
2018-06-14T19:33:36.801Z,13.50
2018-06-14T19:38:32.155Z,13.40
2018-06-14T19:40:59.894Z,13.30
2018-06-14T19:43:27.519Z,13.30
2018-06-14T19:45:55.243Z,13.10
2018-06-14T19:50:50.570Z,12.90
2018-06-14T19:53:18.260Z,12.80
2018-06-14T19:55:45.902Z,12.70
2018-06-14T19:58:13.636Z,12.70
2018-06-14T20:00:41.303Z,12.70
2018-06-14T20:03:08.928Z,12.70
2018-06-14T20:05:36.593Z,12.60
2018-06-14T20:08:04.306Z,12.60
2018-06-14T20:10:32.013Z,12.60
2018-06-14T20:15:27.194Z,12.70
2018-06-14T20:17:54.854Z,12.60
2018-06-14T20:22:50.131Z,12.60
2018-06-14T20:25:20.165Z,12.50
2018-06-14T20:27:47.795Z,12.50
2018-06-14T20:35:11.596Z,11.90
2018-06-14T20:40:12.466Z,11.80
2018-06-14T20:42:40.198Z,11.80
2018-06-14T20:45:08.003Z,11.70
2018-06-14T20:47:35.631Z,11.70
2018-06-14T20:50:03.427Z,11.70
2018-06-14T20:52:31.076Z,11.60
2018-06-14T20:54:58.712Z,11.60
2018-06-14T20:57:26.511Z,11.50
2018-06-14T20:59:54.225Z,11.50
2018-06-14T21:02:22.092Z,11.40
2018-06-14T21:04:49.794Z,11.40
2018-06-14T21:07:17.450Z,11.30
2018-06-14T21:09:45.184Z,11.30
2018-06-14T21:12:12.919Z,11.20
2018-06-14T21:14:40.547Z,11.10
2018-06-14T21:17:08.244Z,11.20
2018-06-14T21:19:35.851Z,11.10
2018-06-14T21:22:03.551Z,11.00
2018-06-14T21:24:31.145Z,11.00
2018-06-14T21:26:58.803Z,11.00
2018-06-14T21:29:30.199Z,11.00
2018-06-14T21:31:59.669Z,11.00
2018-06-14T21:34:31.723Z,10.80
2018-06-14T21:36:59.427Z,10.70
2018-06-14T21:42:03.054Z,10.60
2018-06-14T21:44:31.001Z,10.50
2018-06-14T21:46:59.710Z,10.50
2018-06-14T21:49:27.335Z,10.40
2018-06-14T21:51:55.501Z,10.40
2018-06-14T21:54:24.191Z,10.30
2018-06-14T21:56:51.830Z,10.30
2018-06-14T21:59:20.778Z,10.30
2018-06-14T22:01:48.947Z,10.30
2018-06-14T22:04:17.192Z,10.40
2018-06-14T22:09:13.762Z,10.40
2018-06-14T22:14:08.851Z,10.50
2018-06-14T22:16:36.450Z,10.50
2018-06-14T22:19:04.292Z,10.50
2018-06-14T22:21:31.875Z,10.40
2018-06-14T22:23:59.489Z,10.40
2018-06-14T22:26:27.209Z,10.40
2018-06-14T22:31:22.347Z,10.30
2018-06-14T22:34:01.250Z,10.30
2018-06-14T22:36:28.850Z,10.30
2018-06-14T22:41:25.687Z,10.30
2018-06-14T22:43:53.271Z,10.50
2018-06-14T22:46:20.905Z,10.40
2018-06-14T22:48:48.510Z,10.40
2018-06-14T22:51:20.975Z,10.50
2018-06-14T22:53:48.570Z,10.60
2018-06-14T22:58:57.251Z,10.60
2018-06-14T23:01:46.055Z,10.70
2018-06-14T23:04:30.819Z,10.70
2018-06-14T23:07:11.030Z,10.70
2018-06-14T23:10:19.686Z,10.60
2018-06-14T23:12:47.309Z,10.50
2018-06-14T23:15:15.540Z,10.50
2018-06-14T23:17:44.096Z,10.60
2018-06-14T23:22:39.282Z,10.60
2018-06-14T23:25:06.931Z,10.60
2018-06-14T23:27:34.541Z,10.70
2018-06-14T23:32:29.905Z,10.70
2018-06-14T23:37:25.876Z,10.70
2018-06-14T23:39:53.641Z,10.70
2018-06-14T23:42:21.640Z,10.70
2018-06-14T23:44:49.237Z,10.80
2018-06-14T23:47:16.857Z,10.90
2018-06-14T23:52:11.954Z,10.90
2018-06-14T23:54:39.614Z,10.90
2018-06-14T23:57:07.220Z,11.00
2018-06-14T23:59:34.894Z,11.00
